sensor_id;sensor_type;location;lat;lon;timestamp;temperature;humidity
20714;DHT22;10518;50.742;4.226;2023-03-08T00:01:26;4.70;99.90
20714;DHT22;10518;50.742;4.226;2023-03-08T00:03:56;4.70;99.90
20714;DHT22;10518;50.742;4.226;2023-03-08T00:06:22;4.70;99.90
20714;DHT22;10518;50.742;4.226;2023-03-08T00:08:48;4.70;99.90
20714;DHT22;10518;50.742;4.226;2023-03-08T00:11:14;4.60;99.90
20714;DHT22;10518;50.742;4.226;2023-03-08T00:13:40;4.70;99.90
20714;DHT22;10518;50.742;4.226;2023-03-08T00:16:08;4.70;99.90
20714;DHT22;10518;50.742;4.226;2023-03-08T00:18:35;4.60;99.90
20714;DHT22;10518;50.742;4.226;2023-03-08T00:21:04;4.50;99.90
20714;DHT22;10518;50.742;4.226;2023-03-08T00:23:29;4.50;99.90
20714;DHT22;10518;50.742;4.226;2023-03-08T00:25:55;4.60;99.90
20714;DHT22;10518;50.742;4.226;2023-03-08T00:28:22;4.90;99.90
20714;DHT22;10518;50.742;4.226;2023-03-08T00:30:58;4.80;99.90
20714;DHT22;10518;50.742;4.226;2023-03-08T00:33:25;4.90;99.90
20714;DHT22;10518;50.742;4.226;2023-03-08T00:36:02;4.80;99.90
20714;DHT22;10518;50.742;4.226;2023-03-08T00:38:29;4.90;99.90
20714;DHT22;10518;50.742;4.226;2023-03-08T00:40:55;5.10;99.90
20714;DHT22;10518;50.742;4.226;2023-03-08T00:43:21;5.00;99.90
20714;DHT22;10518;50.742;4.226;2023-03-08T00:45:47;5.10;99.90
20714;DHT22;10518;50.742;4.226;2023-03-08T00:48:12;5.30;99.90
20714;DHT22;10518;50.742;4.226;2023-03-08T00:50:38;5.20;99.90
20714;DHT22;10518;50.742;4.226;2023-03-08T00:53:04;5.00;99.90
20714;DHT22;10518;50.742;4.226;2023-03-08T00:55:29;5.00;99.90
20714;DHT22;10518;50.742;4.226;2023-03-08T00:57:55;4.80;99.90
20714;DHT22;10518;50.742;4.226;2023-03-08T01:00:20;4.70;99.90
20714;DHT22;10518;50.742;4.226;2023-03-08T01:02:46;4.60;99.90
20714;DHT22;10518;50.742;4.226;2023-03-08T01:05:12;4.60;99.90
20714;DHT22;10518;50.742;4.226;2023-03-08T01:07:38;4.60;99.90
20714;DHT22;10518;50.742;4.226;2023-03-08T01:10:04;4.70;99.90
20714;DHT22;10518;50.742;4.226;2023-03-08T01:12:33;4.60;99.90
20714;DHT22;10518;50.742;4.226;2023-03-08T01:14:59;4.60;99.90
20714;DHT22;10518;50.742;4.226;2023-03-08T01:17:25;4.60;99.90
20714;DHT22;10518;50.742;4.226;2023-03-08T01:19:50;4.70;99.90
20714;DHT22;10518;50.742;4.226;2023-03-08T01:22:16;4.70;99.90
20714;DHT22;10518;50.742;4.226;2023-03-08T01:24:45;4.60;99.90
20714;DHT22;10518;50.742;4.226;2023-03-08T01:27:11;4.60;99.90
20714;DHT22;10518;50.742;4.226;2023-03-08T01:29:37;4.60;99.90
20714;DHT22;10518;50.742;4.226;2023-03-08T01:32:03;4.60;99.90
20714;DHT22;10518;50.742;4.226;2023-03-08T01:34:28;4.40;99.90
20714;DHT22;10518;50.742;4.226;2023-03-08T01:36:54;4.40;99.90
20714;DHT22;10518;50.742;4.226;2023-03-08T01:39:20;4.60;99.90
20714;DHT22;10518;50.742;4.226;2023-03-08T01:41:45;4.50;99.90
20714;DHT22;10518;50.742;4.226;2023-03-08T01:44:16;4.40;99.90
20714;DHT22;10518;50.742;4.226;2023-03-08T01:46:41;4.30;99.90
20714;DHT22;10518;50.742;4.226;2023-03-08T01:49:12;4.20;99.90
20714;DHT22;10518;50.742;4.226;2023-03-08T01:54:26;4.10;99.90
20714;DHT22;10518;50.742;4.226;2023-03-08T01:56:56;4.20;99.90
20714;DHT22;10518;50.742;4.226;2023-03-08T01:59:23;4.10;99.90
20714;DHT22;10518;50.742;4.226;2023-03-08T02:01:49;3.90;99.90
20714;DHT22;10518;50.742;4.226;2023-03-08T02:04:15;3.80;99.90
20714;DHT22;10518;50.742;4.226;2023-03-08T02:06:41;3.90;99.90
20714;DHT22;10518;50.742;4.226;2023-03-08T02:09:08;3.90;99.90
20714;DHT22;10518;50.742;4.226;2023-03-08T02:11:35;3.70;99.90
20714;DHT22;10518;50.742;4.226;2023-03-08T02:14:03;3.70;99.90
20714;DHT22;10518;50.742;4.226;2023-03-08T02:16:28;3.60;99.90
20714;DHT22;10518;50.742;4.226;2023-03-08T02:19:01;3.60;99.90
20714;DHT22;10518;50.742;4.226;2023-03-08T02:21:29;3.60;99.90
20714;DHT22;10518;50.742;4.226;2023-03-08T02:23:55;3.30;99.90
20714;DHT22;10518;50.742;4.226;2023-03-08T02:26:21;3.30;99.90
20714;DHT22;10518;50.742;4.226;2023-03-08T02:28:47;3.30;99.90
20714;DHT22;10518;50.742;4.226;2023-03-08T02:31:13;3.50;99.90
20714;DHT22;10518;50.742;4.226;2023-03-08T02:33:39;3.60;99.90
20714;DHT22;10518;50.742;4.226;2023-03-08T02:36:06;3.50;99.90
20714;DHT22;10518;50.742;4.226;2023-03-08T02:38:33;3.20;99.90
20714;DHT22;10518;50.742;4.226;2023-03-08T02:40:58;3.10;99.90
20714;DHT22;10518;50.742;4.226;2023-03-08T02:43:24;3.10;99.90
20714;DHT22;10518;50.742;4.226;2023-03-08T02:45:50;3.00;99.90
20714;DHT22;10518;50.742;4.226;2023-03-08T02:48:16;2.90;99.90
20714;DHT22;10518;50.742;4.226;2023-03-08T02:50:42;3.00;99.90
20714;DHT22;10518;50.742;4.226;2023-03-08T02:53:07;2.90;99.90
20714;DHT22;10518;50.742;4.226;2023-03-08T02:55:33;2.90;99.90
20714;DHT22;10518;50.742;4.226;2023-03-08T02:58:06;2.90;99.90
20714;DHT22;10518;50.742;4.226;2023-03-08T03:00:32;2.70;99.90
20714;DHT22;10518;50.742;4.226;2023-03-08T03:02:58;2.70;99.90
20714;DHT22;10518;50.742;4.226;2023-03-08T03:05:23;2.60;99.90
20714;DHT22;10518;50.742;4.226;2023-03-08T03:07:49;2.50;99.90
20714;DHT22;10518;50.742;4.226;2023-03-08T03:10:15;2.70;99.90
20714;DHT22;10518;50.742;4.226;2023-03-08T03:12:41;2.70;99.90
20714;DHT22;10518;50.742;4.226;2023-03-08T03:15:08;2.50;99.90
20714;DHT22;10518;50.742;4.226;2023-03-08T03:17:34;2.40;99.90
20714;DHT22;10518;50.742;4.226;2023-03-08T03:20:02;2.30;99.90
20714;DHT22;10518;50.742;4.226;2023-03-08T03:22:29;2.30;99.90
20714;DHT22;10518;50.742;4.226;2023-03-08T03:24:55;2.50;99.90
20714;DHT22;10518;50.742;4.226;2023-03-08T03:27:20;2.30;99.90
20714;DHT22;10518;50.742;4.226;2023-03-08T03:29:46;2.50;99.90
20714;DHT22;10518;50.742;4.226;2023-03-08T03:32:12;2.80;99.90
20714;DHT22;10518;50.742;4.226;2023-03-08T03:34:38;2.50;99.90
20714;DHT22;10518;50.742;4.226;2023-03-08T03:37:03;2.50;99.90
20714;DHT22;10518;50.742;4.226;2023-03-08T03:39:29;2.50;99.90
20714;DHT22;10518;50.742;4.226;2023-03-08T03:41:58;2.60;99.90
20714;DHT22;10518;50.742;4.226;2023-03-08T03:44:24;2.60;99.90
20714;DHT22;10518;50.742;4.226;2023-03-08T03:46:50;2.60;99.90
20714;DHT22;10518;50.742;4.226;2023-03-08T03:49:15;2.50;99.90
20714;DHT22;10518;50.742;4.226;2023-03-08T03:51:41;2.60;99.90
20714;DHT22;10518;50.742;4.226;2023-03-08T03:54:07;2.50;99.90
20714;DHT22;10518;50.742;4.226;2023-03-08T03:56:32;2.40;99.90
20714;DHT22;10518;50.742;4.226;2023-03-08T03:58:58;2.40;99.90
20714;DHT22;10518;50.742;4.226;2023-03-08T04:01:26;2.40;99.90
20714;DHT22;10518;50.742;4.226;2023-03-08T04:03:53;2.40;99.90
20714;DHT22;10518;50.742;4.226;2023-03-08T04:06:30;2.20;99.90
20714;DHT22;10518;50.742;4.226;2023-03-08T04:09:09;2.20;99.90
20714;DHT22;10518;50.742;4.226;2023-03-08T04:11:38;2.20;99.90
20714;DHT22;10518;50.742;4.226;2023-03-08T04:14:04;2.40;99.90
20714;DHT22;10518;50.742;4.226;2023-03-08T04:16:32;2.40;99.90
20714;DHT22;10518;50.742;4.226;2023-03-08T04:19:04;2.50;99.90
20714;DHT22;10518;50.742;4.226;2023-03-08T04:21:30;2.60;99.90
20714;DHT22;10518;50.742;4.226;2023-03-08T04:23:56;2.70;99.90
20714;DHT22;10518;50.742;4.226;2023-03-08T04:26:23;2.60;99.90
20714;DHT22;10518;50.742;4.226;2023-03-08T04:28:49;2.50;99.90
20714;DHT22;10518;50.742;4.226;2023-03-08T04:31:26;2.50;99.90
20714;DHT22;10518;50.742;4.226;2023-03-08T04:33:52;2.50;99.90
20714;DHT22;10518;50.742;4.226;2023-03-08T04:36:19;2.40;99.90
20714;DHT22;10518;50.742;4.226;2023-03-08T04:38:45;2.50;99.90
20714;DHT22;10518;50.742;4.226;2023-03-08T04:41:11;2.50;99.90
20714;DHT22;10518;50.742;4.226;2023-03-08T04:43:44;2.50;99.90
20714;DHT22;10518;50.742;4.226;2023-03-08T04:46:10;2.50;99.90
20714;DHT22;10518;50.742;4.226;2023-03-08T04:48:36;2.40;99.90
20714;DHT22;10518;50.742;4.226;2023-03-08T04:51:04;2.50;99.90
20714;DHT22;10518;50.742;4.226;2023-03-08T04:53:31;2.60;99.90
20714;DHT22;10518;50.742;4.226;2023-03-08T04:55:57;2.60;99.90
20714;DHT22;10518;50.742;4.226;2023-03-08T04:58:26;2.60;99.90
20714;DHT22;10518;50.742;4.226;2023-03-08T05:00:53;2.50;99.90
20714;DHT22;10518;50.742;4.226;2023-03-08T05:03:19;2.50;99.90
20714;DHT22;10518;50.742;4.226;2023-03-08T05:05:50;2.50;99.90
20714;DHT22;10518;50.742;4.226;2023-03-08T05:08:16;2.40;99.90
20714;DHT22;10518;50.742;4.226;2023-03-08T05:10:49;2.40;99.90
20714;DHT22;10518;50.742;4.226;2023-03-08T05:13:15;2.40;99.90
20714;DHT22;10518;50.742;4.226;2023-03-08T05:15:41;2.50;99.90
20714;DHT22;10518;50.742;4.226;2023-03-08T05:18:07;2.50;99.90
20714;DHT22;10518;50.742;4.226;2023-03-08T05:20:32;2.50;99.90
20714;DHT22;10518;50.742;4.226;2023-03-08T05:22:58;2.60;99.90
20714;DHT22;10518;50.742;4.226;2023-03-08T05:25:24;2.70;99.90
20714;DHT22;10518;50.742;4.226;2023-03-08T05:27:49;2.60;99.90
20714;DHT22;10518;50.742;4.226;2023-03-08T05:30:15;2.40;99.90
20714;DHT22;10518;50.742;4.226;2023-03-08T05:32:40;2.30;99.90
20714;DHT22;10518;50.742;4.226;2023-03-08T05:35:06;2.30;99.90
20714;DHT22;10518;50.742;4.226;2023-03-08T05:37:33;2.40;99.90
20714;DHT22;10518;50.742;4.226;2023-03-08T05:39:59;2.40;99.90
20714;DHT22;10518;50.742;4.226;2023-03-08T05:42:24;2.50;99.90
20714;DHT22;10518;50.742;4.226;2023-03-08T05:44:51;2.50;99.90
20714;DHT22;10518;50.742;4.226;2023-03-08T05:47:17;2.40;99.90
20714;DHT22;10518;50.742;4.226;2023-03-08T05:49:43;2.50;99.90
20714;DHT22;10518;50.742;4.226;2023-03-08T05:52:08;2.40;99.90
20714;DHT22;10518;50.742;4.226;2023-03-08T05:54:34;2.50;99.90
20714;DHT22;10518;50.742;4.226;2023-03-08T05:56:59;2.50;99.90
20714;DHT22;10518;50.742;4.226;2023-03-08T05:59:25;2.50;99.90
20714;DHT22;10518;50.742;4.226;2023-03-08T06:01:51;2.40;99.90
20714;DHT22;10518;50.742;4.226;2023-03-08T06:04:16;2.50;99.90
20714;DHT22;10518;50.742;4.226;2023-03-08T06:06:42;2.50;99.90
20714;DHT22;10518;50.742;4.226;2023-03-08T06:09:07;2.40;99.90
20714;DHT22;10518;50.742;4.226;2023-03-08T06:11:33;2.50;99.90
20714;DHT22;10518;50.742;4.226;2023-03-08T06:13:59;2.60;99.90
20714;DHT22;10518;50.742;4.226;2023-03-08T06:16:24;2.70;99.90
20714;DHT22;10518;50.742;4.226;2023-03-08T06:18:50;2.60;99.90
20714;DHT22;10518;50.742;4.226;2023-03-08T06:21:17;2.60;99.90
20714;DHT22;10518;50.742;4.226;2023-03-08T06:23:44;2.60;99.90
20714;DHT22;10518;50.742;4.226;2023-03-08T06:26:10;2.60;99.90
20714;DHT22;10518;50.742;4.226;2023-03-08T06:28:36;2.90;99.90
20714;DHT22;10518;50.742;4.226;2023-03-08T06:31:04;2.80;99.90
20714;DHT22;10518;50.742;4.226;2023-03-08T06:33:31;2.70;99.90
20714;DHT22;10518;50.742;4.226;2023-03-08T06:36:06;2.70;99.90
20714;DHT22;10518;50.742;4.226;2023-03-08T06:38:34;2.40;99.90
20714;DHT22;10518;50.742;4.226;2023-03-08T06:41:01;2.30;99.90
20714;DHT22;10518;50.742;4.226;2023-03-08T06:43:27;2.20;99.90
20714;DHT22;10518;50.742;4.226;2023-03-08T06:45:53;2.10;99.90
20714;DHT22;10518;50.742;4.226;2023-03-08T06:48:19;1.80;99.90
20714;DHT22;10518;50.742;4.226;2023-03-08T06:50:46;2.00;99.90
20714;DHT22;10518;50.742;4.226;2023-03-08T06:53:12;2.20;99.90
20714;DHT22;10518;50.742;4.226;2023-03-08T06:55:38;2.10;99.90
20714;DHT22;10518;50.742;4.226;2023-03-08T06:58:05;2.30;99.90
20714;DHT22;10518;50.742;4.226;2023-03-08T07:00:31;2.20;99.90
20714;DHT22;10518;50.742;4.226;2023-03-08T07:02:56;2.20;99.90
20714;DHT22;10518;50.742;4.226;2023-03-08T07:05:22;2.20;99.90
20714;DHT22;10518;50.742;4.226;2023-03-08T07:07:48;2.10;99.90
20714;DHT22;10518;50.742;4.226;2023-03-08T07:10:15;2.20;99.90
20714;DHT22;10518;50.742;4.226;2023-03-08T07:12:41;2.30;99.90
20714;DHT22;10518;50.742;4.226;2023-03-08T07:15:11;2.20;99.90
20714;DHT22;10518;50.742;4.226;2023-03-08T07:17:40;2.20;99.90
20714;DHT22;10518;50.742;4.226;2023-03-08T07:20:06;2.20;99.90
20714;DHT22;10518;50.742;4.226;2023-03-08T07:22:32;2.20;99.90
20714;DHT22;10518;50.742;4.226;2023-03-08T07:24:58;2.30;99.90
20714;DHT22;10518;50.742;4.226;2023-03-08T07:27:24;2.40;99.90
20714;DHT22;10518;50.742;4.226;2023-03-08T07:29:50;2.40;99.90
20714;DHT22;10518;50.742;4.226;2023-03-08T07:32:15;2.30;99.90
20714;DHT22;10518;50.742;4.226;2023-03-08T07:34:41;2.30;99.90
20714;DHT22;10518;50.742;4.226;2023-03-08T07:37:11;2.20;99.90
20714;DHT22;10518;50.742;4.226;2023-03-08T07:39:37;2.30;99.90
20714;DHT22;10518;50.742;4.226;2023-03-08T07:42:03;2.20;99.90
20714;DHT22;10518;50.742;4.226;2023-03-08T07:44:29;2.30;99.90
20714;DHT22;10518;50.742;4.226;2023-03-08T07:46:54;2.30;99.90
20714;DHT22;10518;50.742;4.226;2023-03-08T07:49:20;2.20;99.90
20714;DHT22;10518;50.742;4.226;2023-03-08T07:51:47;2.20;99.90
20714;DHT22;10518;50.742;4.226;2023-03-08T07:54:15;2.20;99.90
20714;DHT22;10518;50.742;4.226;2023-03-08T07:56:41;2.20;99.90
20714;DHT22;10518;50.742;4.226;2023-03-08T07:59:07;2.20;99.90
20714;DHT22;10518;50.742;4.226;2023-03-08T08:01:32;2.10;99.90
20714;DHT22;10518;50.742;4.226;2023-03-08T08:03:58;2.00;99.90
20714;DHT22;10518;50.742;4.226;2023-03-08T08:06:25;2.00;99.90
20714;DHT22;10518;50.742;4.226;2023-03-08T08:08:50;2.00;99.90
20714;DHT22;10518;50.742;4.226;2023-03-08T08:11:17;2.10;99.90
20714;DHT22;10518;50.742;4.226;2023-03-08T08:13:45;2.20;99.90
20714;DHT22;10518;50.742;4.226;2023-03-08T08:16:14;2.20;99.90
20714;DHT22;10518;50.742;4.226;2023-03-08T08:18:40;2.10;99.90
20714;DHT22;10518;50.742;4.226;2023-03-08T08:21:11;2.20;99.90
20714;DHT22;10518;50.742;4.226;2023-03-08T08:23:38;2.20;99.90
20714;DHT22;10518;50.742;4.226;2023-03-08T08:26:05;2.10;99.90
20714;DHT22;10518;50.742;4.226;2023-03-08T08:28:31;2.20;99.90
20714;DHT22;10518;50.742;4.226;2023-03-08T08:31:03;2.20;99.90
20714;DHT22;10518;50.742;4.226;2023-03-08T08:33:30;2.30;99.90
20714;DHT22;10518;50.742;4.226;2023-03-08T08:35:57;2.10;99.90
20714;DHT22;10518;50.742;4.226;2023-03-08T08:38:23;2.10;99.90
20714;DHT22;10518;50.742;4.226;2023-03-08T08:40:49;2.20;99.90
20714;DHT22;10518;50.742;4.226;2023-03-08T08:43:16;2.10;99.90
20714;DHT22;10518;50.742;4.226;2023-03-08T08:45:52;2.20;99.90
20714;DHT22;10518;50.742;4.226;2023-03-08T08:48:18;2.30;99.90
20714;DHT22;10518;50.742;4.226;2023-03-08T08:50:44;2.30;99.90
20714;DHT22;10518;50.742;4.226;2023-03-08T08:53:09;2.30;99.90
20714;DHT22;10518;50.742;4.226;2023-03-08T08:55:35;2.30;99.90
20714;DHT22;10518;50.742;4.226;2023-03-08T08:58:02;2.50;99.90
20714;DHT22;10518;50.742;4.226;2023-03-08T09:00:28;2.50;99.90
20714;DHT22;10518;50.742;4.226;2023-03-08T09:02:54;2.50;99.90
20714;DHT22;10518;50.742;4.226;2023-03-08T09:05:19;2.50;99.90
20714;DHT22;10518;50.742;4.226;2023-03-08T09:07:45;2.60;99.90
20714;DHT22;10518;50.742;4.226;2023-03-08T09:10:11;2.60;99.90
20714;DHT22;10518;50.742;4.226;2023-03-08T09:12:37;2.60;99.90
20714;DHT22;10518;50.742;4.226;2023-03-08T09:15:04;2.70;99.90
20714;DHT22;10518;50.742;4.226;2023-03-08T09:17:30;2.70;99.90
20714;DHT22;10518;50.742;4.226;2023-03-08T09:19:57;2.90;99.90
20714;DHT22;10518;50.742;4.226;2023-03-08T09:22:24;2.80;99.90
20714;DHT22;10518;50.742;4.226;2023-03-08T09:24:49;3.00;99.90
20714;DHT22;10518;50.742;4.226;2023-03-08T09:27:15;3.10;99.90
20714;DHT22;10518;50.742;4.226;2023-03-08T09:29:41;3.00;99.90
20714;DHT22;10518;50.742;4.226;2023-03-08T09:32:06;3.00;99.90
20714;DHT22;10518;50.742;4.226;2023-03-08T09:34:32;2.90;99.90
20714;DHT22;10518;50.742;4.226;2023-03-08T09:36:58;2.80;99.90
20714;DHT22;10518;50.742;4.226;2023-03-08T09:39:24;2.70;99.90
20714;DHT22;10518;50.742;4.226;2023-03-08T09:41:50;2.80;99.90
20714;DHT22;10518;50.742;4.226;2023-03-08T09:47:19;3.00;99.90
20714;DHT22;10518;50.742;4.226;2023-03-08T09:49:49;3.30;99.90
20714;DHT22;10518;50.742;4.226;2023-03-08T09:52:25;3.10;99.90
20714;DHT22;10518;50.742;4.226;2023-03-08T09:54:54;3.30;99.90
20714;DHT22;10518;50.742;4.226;2023-03-08T09:57:24;3.40;99.90
20714;DHT22;10518;50.742;4.226;2023-03-08T09:59:55;3.30;99.90
20714;DHT22;10518;50.742;4.226;2023-03-08T10:05:30;3.30;99.90
20714;DHT22;10518;50.742;4.226;2023-03-08T10:15:42;3.50;99.90
20714;DHT22;10518;50.742;4.226;2023-03-08T10:18:25;3.40;99.90
20714;DHT22;10518;50.742;4.226;2023-03-08T10:20:52;3.60;99.90
20714;DHT22;10518;50.742;4.226;2023-03-08T10:23:22;3.80;99.90
20714;DHT22;10518;50.742;4.226;2023-03-08T10:25:49;3.80;99.90
20714;DHT22;10518;50.742;4.226;2023-03-08T10:28:19;3.80;99.90
20714;DHT22;10518;50.742;4.226;2023-03-08T10:30:49;4.10;99.90
20714;DHT22;10518;50.742;4.226;2023-03-08T10:33:18;4.30;99.90
20714;DHT22;10518;50.742;4.226;2023-03-08T10:35:57;4.00;99.90
20714;DHT22;10518;50.742;4.226;2023-03-08T10:38:30;3.80;99.90
20714;DHT22;10518;50.742;4.226;2023-03-08T10:41:12;4.10;99.90
20714;DHT22;10518;50.742;4.226;2023-03-08T10:43:44;4.20;99.90
20714;DHT22;10518;50.742;4.226;2023-03-08T10:46:15;4.50;99.90
20714;DHT22;10518;50.742;4.226;2023-03-08T10:48:42;4.30;99.90
20714;DHT22;10518;50.742;4.226;2023-03-08T10:51:26;4.30;99.90
20714;DHT22;10518;50.742;4.226;2023-03-08T10:53:56;4.40;99.90
20714;DHT22;10518;50.742;4.226;2023-03-08T10:56:44;4.30;99.90
20714;DHT22;10518;50.742;4.226;2023-03-08T10:59:19;4.40;99.90
20714;DHT22;10518;50.742;4.226;2023-03-08T11:01:56;4.30;99.90
20714;DHT22;10518;50.742;4.226;2023-03-08T11:04:26;4.30;99.90
20714;DHT22;10518;50.742;4.226;2023-03-08T11:06:52;4.40;99.90
20714;DHT22;10518;50.742;4.226;2023-03-08T11:11:49;4.10;99.90
20714;DHT22;10518;50.742;4.226;2023-03-08T11:14:15;4.10;99.90
20714;DHT22;10518;50.742;4.226;2023-03-08T11:17:13;4.40;99.90
20714;DHT22;10518;50.742;4.226;2023-03-08T11:28:32;4.00;99.90
20714;DHT22;10518;50.742;4.226;2023-03-08T11:31:12;4.10;99.90
20714;DHT22;10518;50.742;4.226;2023-03-08T11:50:00;4.80;99.90
20714;DHT22;10518;50.742;4.226;2023-03-08T11:57:56;4.90;99.90
20714;DHT22;10518;50.742;4.226;2023-03-08T12:00:31;4.80;99.90
20714;DHT22;10518;50.742;4.226;2023-03-08T12:03:03;4.50;99.90
20714;DHT22;10518;50.742;4.226;2023-03-08T12:05:34;4.50;99.90
20714;DHT22;10518;50.742;4.226;2023-03-08T12:10:43;4.80;99.90
20714;DHT22;10518;50.742;4.226;2023-03-08T12:16:07;4.80;99.90
20714;DHT22;10518;50.742;4.226;2023-03-08T12:26:36;4.60;99.90
20714;DHT22;10518;50.742;4.226;2023-03-08T12:29:25;4.50;99.90
20714;DHT22;10518;50.742;4.226;2023-03-08T12:31:52;4.60;99.90
20714;DHT22;10518;50.742;4.226;2023-03-08T12:34:35;4.70;99.90
20714;DHT22;10518;50.742;4.226;2023-03-08T12:37:02;4.60;99.90
20714;DHT22;10518;50.742;4.226;2023-03-08T12:39:29;5.00;99.90
20714;DHT22;10518;50.742;4.226;2023-03-08T12:44:36;5.00;99.90
20714;DHT22;10518;50.742;4.226;2023-03-08T12:47:18;5.00;99.90
20714;DHT22;10518;50.742;4.226;2023-03-08T12:49:46;5.10;99.90
20714;DHT22;10518;50.742;4.226;2023-03-08T12:54:44;4.90;99.90
20714;DHT22;10518;50.742;4.226;2023-03-08T12:57:22;4.80;99.90
20714;DHT22;10518;50.742;4.226;2023-03-08T12:59:58;4.90;99.90
20714;DHT22;10518;50.742;4.226;2023-03-08T13:02:30;5.10;99.90
20714;DHT22;10518;50.742;4.226;2023-03-08T13:10:20;5.00;99.90
20714;DHT22;10518;50.742;4.226;2023-03-08T13:15:24;4.60;99.90
20714;DHT22;10518;50.742;4.226;2023-03-08T13:20:48;4.70;99.90
20714;DHT22;10518;50.742;4.226;2023-03-08T13:23:26;5.10;99.90
20714;DHT22;10518;50.742;4.226;2023-03-08T13:28:55;5.10;99.90
20714;DHT22;10518;50.742;4.226;2023-03-08T13:31:26;5.10;99.90
20714;DHT22;10518;50.742;4.226;2023-03-08T13:33:54;5.10;99.90
20714;DHT22;10518;50.742;4.226;2023-03-08T13:36:28;5.50;99.90
20714;DHT22;10518;50.742;4.226;2023-03-08T13:41:35;5.30;99.90
20714;DHT22;10518;50.742;4.226;2023-03-08T13:44:03;5.00;99.90
20714;DHT22;10518;50.742;4.226;2023-03-08T13:46:29;5.00;99.90
20714;DHT22;10518;50.742;4.226;2023-03-08T13:48:55;4.80;99.90
20714;DHT22;10518;50.742;4.226;2023-03-08T13:51:24;4.70;99.90
20714;DHT22;10518;50.742;4.226;2023-03-08T13:53:51;4.90;99.90
20714;DHT22;10518;50.742;4.226;2023-03-08T13:56:26;4.80;99.90
20714;DHT22;10518;50.742;4.226;2023-03-08T13:58:54;4.80;99.90
20714;DHT22;10518;50.742;4.226;2023-03-08T14:01:24;4.90;99.90
20714;DHT22;10518;50.742;4.226;2023-03-08T14:03:51;5.30;99.90
20714;DHT22;10518;50.742;4.226;2023-03-08T14:06:22;5.40;99.90
20714;DHT22;10518;50.742;4.226;2023-03-08T14:08:48;5.00;99.90
20714;DHT22;10518;50.742;4.226;2023-03-08T14:11:26;5.10;99.90
20714;DHT22;10518;50.742;4.226;2023-03-08T14:13:54;5.00;99.90
20714;DHT22;10518;50.742;4.226;2023-03-08T14:16:28;4.90;99.90
20714;DHT22;10518;50.742;4.226;2023-03-08T14:18:54;4.90;99.90
20714;DHT22;10518;50.742;4.226;2023-03-08T14:21:25;5.10;99.90
20714;DHT22;10518;50.742;4.226;2023-03-08T14:23:54;5.30;99.90
20714;DHT22;10518;50.742;4.226;2023-03-08T14:26:33;5.20;99.90
20714;DHT22;10518;50.742;4.226;2023-03-08T14:29:22;5.20;99.90
20714;DHT22;10518;50.742;4.226;2023-03-08T14:34:38;5.40;99.90
20714;DHT22;10518;50.742;4.226;2023-03-08T14:39:43;5.60;99.90
20714;DHT22;10518;50.742;4.226;2023-03-08T14:42:24;5.40;99.90
20714;DHT22;10518;50.742;4.226;2023-03-08T14:44:59;5.50;99.90
20714;DHT22;10518;50.742;4.226;2023-03-08T14:47:28;5.40;99.90
20714;DHT22;10518;50.742;4.226;2023-03-08T14:50:03;5.40;99.90
20714;DHT22;10518;50.742;4.226;2023-03-08T14:52:31;5.30;99.90
20714;DHT22;10518;50.742;4.226;2023-03-08T14:54:58;5.30;99.90
20714;DHT22;10518;50.742;4.226;2023-03-08T14:57:27;5.30;99.90
20714;DHT22;10518;50.742;4.226;2023-03-08T15:00:09;5.30;99.90
20714;DHT22;10518;50.742;4.226;2023-03-08T15:02:38;5.20;99.90
20714;DHT22;10518;50.742;4.226;2023-03-08T15:05:04;5.50;99.90
20714;DHT22;10518;50.742;4.226;2023-03-08T15:07:33;5.60;99.90
20714;DHT22;10518;50.742;4.226;2023-03-08T15:10:03;5.30;99.90
20714;DHT22;10518;50.742;4.226;2023-03-08T15:12:29;5.00;99.90
20714;DHT22;10518;50.742;4.226;2023-03-08T15:14:54;4.90;99.90
20714;DHT22;10518;50.742;4.226;2023-03-08T15:17:20;5.10;99.90
20714;DHT22;10518;50.742;4.226;2023-03-08T15:19:47;4.80;99.90
20714;DHT22;10518;50.742;4.226;2023-03-08T15:22:13;4.80;99.90
20714;DHT22;10518;50.742;4.226;2023-03-08T15:24:41;4.90;99.90
20714;DHT22;10518;50.742;4.226;2023-03-08T15:27:09;4.80;99.90
20714;DHT22;10518;50.742;4.226;2023-03-08T15:29:37;4.90;99.90
20714;DHT22;10518;50.742;4.226;2023-03-08T15:32:03;4.80;99.90
20714;DHT22;10518;50.742;4.226;2023-03-08T15:34:28;4.80;99.90
20714;DHT22;10518;50.742;4.226;2023-03-08T15:36:54;4.90;99.90
20714;DHT22;10518;50.742;4.226;2023-03-08T15:39:20;4.90;99.90
20714;DHT22;10518;50.742;4.226;2023-03-08T15:41:46;5.00;99.90
20714;DHT22;10518;50.742;4.226;2023-03-08T15:44:12;5.40;99.90
20714;DHT22;10518;50.742;4.226;2023-03-08T15:46:38;5.40;99.90
20714;DHT22;10518;50.742;4.226;2023-03-08T15:49:04;5.10;99.90
20714;DHT22;10518;50.742;4.226;2023-03-08T15:51:34;4.80;99.90
20714;DHT22;10518;50.742;4.226;2023-03-08T15:54:01;5.00;99.90
20714;DHT22;10518;50.742;4.226;2023-03-08T15:56:27;5.30;99.90
20714;DHT22;10518;50.742;4.226;2023-03-08T15:58:52;5.10;99.90
20714;DHT22;10518;50.742;4.226;2023-03-08T16:01:20;5.20;99.90
20714;DHT22;10518;50.742;4.226;2023-03-08T16:03:46;5.30;99.90
20714;DHT22;10518;50.742;4.226;2023-03-08T16:06:13;5.30;99.90
20714;DHT22;10518;50.742;4.226;2023-03-08T16:08:40;5.40;99.90
20714;DHT22;10518;50.742;4.226;2023-03-08T16:11:11;5.40;99.90
20714;DHT22;10518;50.742;4.226;2023-03-08T16:13:37;5.40;99.90
20714;DHT22;10518;50.742;4.226;2023-03-08T16:16:03;5.40;99.90
20714;DHT22;10518;50.742;4.226;2023-03-08T16:18:30;5.50;99.90
20714;DHT22;10518;50.742;4.226;2023-03-08T16:20:57;5.70;99.90
20714;DHT22;10518;50.742;4.226;2023-03-08T16:23:23;5.30;99.90
20714;DHT22;10518;50.742;4.226;2023-03-08T16:26:07;4.90;99.90
20714;DHT22;10518;50.742;4.226;2023-03-08T16:28:33;4.80;99.90
20714;DHT22;10518;50.742;4.226;2023-03-08T16:30:58;5.10;99.90
20714;DHT22;10518;50.742;4.226;2023-03-08T16:33:27;5.10;99.90
20714;DHT22;10518;50.742;4.226;2023-03-08T16:35:53;5.30;99.90
20714;DHT22;10518;50.742;4.226;2023-03-08T16:38:21;5.50;99.90
20714;DHT22;10518;50.742;4.226;2023-03-08T16:40:46;5.30;99.90
20714;DHT22;10518;50.742;4.226;2023-03-08T16:43:12;5.10;99.90
20714;DHT22;10518;50.742;4.226;2023-03-08T16:45:54;5.30;99.90
20714;DHT22;10518;50.742;4.226;2023-03-08T16:48:20;5.40;99.90
20714;DHT22;10518;50.742;4.226;2023-03-08T16:50:55;5.60;99.90
20714;DHT22;10518;50.742;4.226;2023-03-08T16:53:21;5.60;99.90
20714;DHT22;10518;50.742;4.226;2023-03-08T16:55:47;5.00;99.90
20714;DHT22;10518;50.742;4.226;2023-03-08T16:58:14;4.90;99.90
20714;DHT22;10518;50.742;4.226;2023-03-08T17:00:40;4.80;99.90
20714;DHT22;10518;50.742;4.226;2023-03-08T17:03:06;5.00;99.90
20714;DHT22;10518;50.742;4.226;2023-03-08T17:05:32;4.90;99.90
20714;DHT22;10518;50.742;4.226;2023-03-08T17:07:58;4.90;99.90
20714;DHT22;10518;50.742;4.226;2023-03-08T17:10:23;4.80;99.90
20714;DHT22;10518;50.742;4.226;2023-03-08T17:12:49;4.80;99.90
20714;DHT22;10518;50.742;4.226;2023-03-08T17:15:15;4.90;99.90
20714;DHT22;10518;50.742;4.226;2023-03-08T17:17:40;4.90;99.90
20714;DHT22;10518;50.742;4.226;2023-03-08T17:20:07;4.90;99.90